This is the latest recevied weather packets stored in our database for station/object EA1L-13. If no packets are shown the sender has not sent any weather packets the latest 10 day(s).
| Time | Temp. | Humidity | Pressure | Rain* | Wind** | Luminosity | Snow |
|---|---|---|---|---|---|---|---|
| 1777986004 | 12.22° C | 86% | 1012.2 hPa | 0 mm | - | - | - |
| 1777985104 | 11.11° C | 88% | 1012.2 hPa | 0 mm | - | - | - |
| 1777984205 | 10.56° C | 87% | 1012.2 hPa | 0 mm | - | - | - |
| 1777983304 | 10.56° C | 83% | 1012.2 hPa | 0 mm | - | - | - |
| 1777982404 | 11.11° C | 76% | 1012.2 hPa | 0 mm | - | - | - |
| 1777981505 | 13.33° C | 79% | 1011.9 hPa | 0 mm | - | - | - |
| 1777980604 | 12.22° C | 86% | 1012 hPa | 0.25 mm | - | - | - |
| 1777979704 | 12.22° C | 91% | 1012.2 hPa | 0.25 mm | - | - | - |
| 1777978804 | 11.67° C | 96% | 1012.3 hPa | 0.25 mm | - | - | - |
| 1777977905 | 11.11° C | 93% | 1012.4 hPa | 0.25 mm | - | - | - |
| 1777977004 | 12.22° C | 95% | 1012.3 hPa | 0 mm | - | - | - |
| 1777976104 | 13.33° C | 100% | 1012.2 hPa | 0 mm | - | - | - |
| 1777975204 | 13.89° C | 100% | 1012.2 hPa | 0 mm | - | - | - |
| 1777974304 | 13.89° C | 100% | 1012.2 hPa | 0 mm | - | - | - |
| 1777973405 | 13.89° C | 100% | 1012.2 hPa | 0 mm | - | - | - |
| 1777972504 | 13.89° C | 100% | 1012.2 hPa | 0 mm | - | - | - |
| 1777971605 | 13.89° C | 100% | 1012.3 hPa | 0 mm | - | - | - |
| 1777970705 | 13.89° C | 100% | 1012.4 hPa | 0 mm | - | - | - |
| 1777969804 | 13.33° C | 100% | 1012.3 hPa | 0.25 mm | - | - | - |
| 1777968904 | 13.33° C | 100% | 1012.3 hPa | 0.25 mm | - | - | - |
| 1777968005 | 13.33° C | 100% | 1012.3 hPa | 0.25 mm | - | - | - |
| 1777967104 | 12.78° C | 100% | 1012.1 hPa | 0.25 mm | - | - | - |
| 1777966205 | 12.78° C | 100% | 1012.1 hPa | 0 mm | - | - | - |
| 1777965304 | 12.22° C | 100% | 1012.2 hPa | 0 mm | - | - | - |
| 1777964404 | 12.22° C | 100% | 1012.1 hPa | 0 mm | - | - | - |
* Rain latest hour (hover to see other rain measurements)
** Current wind speed in m/s (hover to see current wind gust speed)